sensor_id;sensor_type;location;lat;lon;timestamp;P1;durP1;ratioP1;P2;durP2;ratioP2
68273;SDS011;55104;47.356;19.448;2024-03-02T00:01:28;18.55;;;6.85;;
68273;SDS011;55104;47.356;19.448;2024-03-02T00:04:31;17.20;;;7.50;;
68273;SDS011;55104;47.356;19.448;2024-03-02T00:07:33;10.47;;;5.00;;
68273;SDS011;55104;47.356;19.448;2024-03-02T00:10:38;13.18;;;7.40;;
68273;SDS011;55104;47.356;19.448;2024-03-02T00:13:42;16.52;;;6.07;;
68273;SDS011;55104;47.356;19.448;2024-03-02T00:16:44;14.87;;;7.07;;
68273;SDS011;55104;47.356;19.448;2024-03-02T00:19:46;13.07;;;5.35;;
68273;SDS011;55104;47.356;19.448;2024-03-02T00:22:49;20.23;;;6.40;;
68273;SDS011;55104;47.356;19.448;2024-03-02T00:25:53;12.55;;;7.03;;
68273;SDS011;55104;47.356;19.448;2024-03-02T00:28:57;18.45;;;6.03;;
68273;SDS011;55104;47.356;19.448;2024-03-02T00:32:02;14.40;;;6.40;;
68273;SDS011;55104;47.356;19.448;2024-03-02T00:35:04;14.68;;;7.13;;
68273;SDS011;55104;47.356;19.448;2024-03-02T00:38:07;14.93;;;6.33;;
68273;SDS011;55104;47.356;19.448;2024-03-02T00:41:11;12.70;;;4.57;;
68273;SDS011;55104;47.356;19.448;2024-03-02T00:44:25;14.35;;;5.90;;
68273;SDS011;55104;47.356;19.448;2024-03-02T00:47:39;11.80;;;4.80;;
68273;SDS011;55104;47.356;19.448;2024-03-02T00:50:41;12.93;;;6.30;;
68273;SDS011;55104;47.356;19.448;2024-03-02T00:53:43;16.48;;;6.63;;
68273;SDS011;55104;47.356;19.448;2024-03-02T00:56:46;14.40;;;7.38;;
68273;SDS011;55104;47.356;19.448;2024-03-02T00:59:49;12.17;;;5.57;;
68273;SDS011;55104;47.356;19.448;2024-03-02T01:02:51;13.57;;;5.43;;
68273;SDS011;55104;47.356;19.448;2024-03-02T01:05:54;16.70;;;5.72;;
68273;SDS011;55104;47.356;19.448;2024-03-02T01:08:56;12.85;;;5.13;;
68273;SDS011;55104;47.356;19.448;2024-03-02T01:11:59;11.13;;;5.10;;
68273;SDS011;55104;47.356;19.448;2024-03-02T01:15:01;12.10;;;5.20;;
68273;SDS011;55104;47.356;19.448;2024-03-02T01:18:06;15.15;;;7.03;;
68273;SDS011;55104;47.356;19.448;2024-03-02T01:21:08;20.10;;;6.15;;
68273;SDS011;55104;47.356;19.448;2024-03-02T01:24:10;16.52;;;6.30;;
68273;SDS011;55104;47.356;19.448;2024-03-02T01:27:12;16.27;;;5.18;;
68273;SDS011;55104;47.356;19.448;2024-03-02T01:30:15;13.43;;;5.53;;
68273;SDS011;55104;47.356;19.448;2024-03-02T01:33:17;14.40;;;5.77;;
68273;SDS011;55104;47.356;19.448;2024-03-02T01:36:21;21.73;;;7.07;;
68273;SDS011;55104;47.356;19.448;2024-03-02T01:39:23;15.50;;;7.05;;
68273;SDS011;55104;47.356;19.448;2024-03-02T01:42:26;16.48;;;6.07;;
68273;SDS011;55104;47.356;19.448;2024-03-02T01:45:28;12.60;;;5.17;;
68273;SDS011;55104;47.356;19.448;2024-03-02T01:48:30;15.13;;;4.85;;
68273;SDS011;55104;47.356;19.448;2024-03-02T01:51:33;16.20;;;6.60;;
68273;SDS011;55104;47.356;19.448;2024-03-02T01:54:35;13.52;;;6.03;;
68273;SDS011;55104;47.356;19.448;2024-03-02T01:57:37;12.47;;;7.17;;
68273;SDS011;55104;47.356;19.448;2024-03-02T02:00:40;14.63;;;5.40;;
68273;SDS011;55104;47.356;19.448;2024-03-02T02:03:43;11.32;;;5.43;;
68273;SDS011;55104;47.356;19.448;2024-03-02T02:06:45;22.02;;;6.88;;
68273;SDS011;55104;47.356;19.448;2024-03-02T02:09:48;10.30;;;4.57;;
68273;SDS011;55104;47.356;19.448;2024-03-02T02:12:50;12.73;;;5.55;;
68273;SDS011;55104;47.356;19.448;2024-03-02T02:15:52;14.02;;;6.50;;
68273;SDS011;55104;47.356;19.448;2024-03-02T02:18:55;27.80;;;6.03;;
68273;SDS011;55104;47.356;19.448;2024-03-02T02:21:57;20.95;;;6.95;;
68273;SDS011;55104;47.356;19.448;2024-03-02T02:25:00;17.67;;;5.85;;
68273;SDS011;55104;47.356;19.448;2024-03-02T02:28:02;14.30;;;6.13;;
68273;SDS011;55104;47.356;19.448;2024-03-02T02:31:05;13.20;;;6.87;;
68273;SDS011;55104;47.356;19.448;2024-03-02T02:34:07;14.70;;;5.60;;
68273;SDS011;55104;47.356;19.448;2024-03-02T02:37:11;13.43;;;6.55;;
68273;SDS011;55104;47.356;19.448;2024-03-02T02:40:13;19.33;;;6.95;;
68273;SDS011;55104;47.356;19.448;2024-03-02T02:43:16;16.08;;;7.32;;
68273;SDS011;55104;47.356;19.448;2024-03-02T02:46:18;15.55;;;5.75;;
68273;SDS011;55104;47.356;19.448;2024-03-02T02:49:21;13.65;;;5.75;;
68273;SDS011;55104;47.356;19.448;2024-03-02T02:52:23;17.37;;;6.97;;
68273;SDS011;55104;47.356;19.448;2024-03-02T02:55:25;19.55;;;6.13;;
68273;SDS011;55104;47.356;19.448;2024-03-02T02:58:28;14.15;;;5.80;;
68273;SDS011;55104;47.356;19.448;2024-03-02T03:01:30;12.13;;;5.30;;
68273;SDS011;55104;47.356;19.448;2024-03-02T03:04:32;15.05;;;6.70;;
68273;SDS011;55104;47.356;19.448;2024-03-02T03:07:34;11.80;;;4.57;;
68273;SDS011;55104;47.356;19.448;2024-03-02T03:10:38;22.17;;;6.82;;
68273;SDS011;55104;47.356;19.448;2024-03-02T03:13:40;14.43;;;6.33;;
68273;SDS011;55104;47.356;19.448;2024-03-02T03:16:43;14.20;;;5.93;;
68273;SDS011;55104;47.356;19.448;2024-03-02T03:19:45;12.98;;;5.70;;
68273;SDS011;55104;47.356;19.448;2024-03-02T03:22:47;14.65;;;6.30;;
68273;SDS011;55104;47.356;19.448;2024-03-02T03:25:49;21.63;;;6.43;;
68273;SDS011;55104;47.356;19.448;2024-03-02T03:28:51;16.90;;;5.88;;
68273;SDS011;55104;47.356;19.448;2024-03-02T03:31:53;13.52;;;5.63;;
68273;SDS011;55104;47.356;19.448;2024-03-02T03:34:55;14.50;;;5.93;;
68273;SDS011;55104;47.356;19.448;2024-03-02T03:37:58;15.60;;;4.90;;
68273;SDS011;55104;47.356;19.448;2024-03-02T03:41:00;18.83;;;6.85;;
68273;SDS011;55104;47.356;19.448;2024-03-02T03:44:02;14.38;;;6.97;;
68273;SDS011;55104;47.356;19.448;2024-03-02T03:47:05;18.40;;;6.82;;
68273;SDS011;55104;47.356;19.448;2024-03-02T03:50:08;14.73;;;5.93;;
68273;SDS011;55104;47.356;19.448;2024-03-02T03:53:10;13.63;;;5.78;;
68273;SDS011;55104;47.356;19.448;2024-03-02T03:56:13;17.25;;;6.10;;
68273;SDS011;55104;47.356;19.448;2024-03-02T03:59:15;12.17;;;5.73;;
68273;SDS011;55104;47.356;19.448;2024-03-02T04:02:17;13.43;;;6.63;;
68273;SDS011;55104;47.356;19.448;2024-03-02T04:05:19;18.42;;;7.43;;
68273;SDS011;55104;47.356;19.448;2024-03-02T04:08:21;10.00;;;5.93;;
68273;SDS011;55104;47.356;19.448;2024-03-02T04:11:23;17.50;;;6.18;;
68273;SDS011;55104;47.356;19.448;2024-03-02T04:14:26;20.17;;;6.65;;
68273;SDS011;55104;47.356;19.448;2024-03-02T04:17:28;16.73;;;7.55;;
68273;SDS011;55104;47.356;19.448;2024-03-02T04:20:30;16.77;;;7.80;;
68273;SDS011;55104;47.356;19.448;2024-03-02T04:23:32;16.48;;;6.28;;
68273;SDS011;55104;47.356;19.448;2024-03-02T04:26:35;13.10;;;5.47;;
68273;SDS011;55104;47.356;19.448;2024-03-02T04:29:37;12.50;;;5.90;;
68273;SDS011;55104;47.356;19.448;2024-03-02T04:32:39;13.55;;;6.13;;
68273;SDS011;55104;47.356;19.448;2024-03-02T04:35:41;13.60;;;5.88;;
68273;SDS011;55104;47.356;19.448;2024-03-02T04:38:44;13.63;;;5.72;;
68273;SDS011;55104;47.356;19.448;2024-03-02T04:41:46;16.07;;;5.07;;
68273;SDS011;55104;47.356;19.448;2024-03-02T04:44:48;17.98;;;6.95;;
68273;SDS011;55104;47.356;19.448;2024-03-02T04:47:50;12.98;;;6.43;;
68273;SDS011;55104;47.356;19.448;2024-03-02T04:50:53;17.48;;;7.25;;
68273;SDS011;55104;47.356;19.448;2024-03-02T04:53:55;17.80;;;6.70;;
68273;SDS011;55104;47.356;19.448;2024-03-02T04:56:57;18.90;;;5.97;;
68273;SDS011;55104;47.356;19.448;2024-03-02T05:00:00;20.67;;;6.85;;
68273;SDS011;55104;47.356;19.448;2024-03-02T05:03:02;15.02;;;7.13;;
68273;SDS011;55104;47.356;19.448;2024-03-02T05:06:05;13.40;;;7.03;;
68273;SDS011;55104;47.356;19.448;2024-03-02T05:09:08;18.98;;;6.65;;
68273;SDS011;55104;47.356;19.448;2024-03-02T05:12:11;10.75;;;4.65;;
68273;SDS011;55104;47.356;19.448;2024-03-02T05:15:31;21.37;;;7.13;;
68273;SDS011;55104;47.356;19.448;2024-03-02T05:18:34;11.45;;;5.25;;
68273;SDS011;55104;47.356;19.448;2024-03-02T05:21:36;22.15;;;8.95;;
68273;SDS011;55104;47.356;19.448;2024-03-02T05:24:38;19.65;;;7.38;;
68273;SDS011;55104;47.356;19.448;2024-03-02T05:27:40;13.77;;;6.20;;
68273;SDS011;55104;47.356;19.448;2024-03-02T05:30:43;16.48;;;6.88;;
68273;SDS011;55104;47.356;19.448;2024-03-02T05:33:45;16.33;;;6.75;;
68273;SDS011;55104;47.356;19.448;2024-03-02T05:36:48;11.05;;;6.55;;
68273;SDS011;55104;47.356;19.448;2024-03-02T05:39:51;17.42;;;7.15;;
68273;SDS011;55104;47.356;19.448;2024-03-02T05:42:53;15.43;;;6.15;;
68273;SDS011;55104;47.356;19.448;2024-03-02T05:45:56;18.42;;;7.07;;
68273;SDS011;55104;47.356;19.448;2024-03-02T05:48:59;14.40;;;5.17;;
68273;SDS011;55104;47.356;19.448;2024-03-02T05:52:02;17.45;;;7.80;;
68273;SDS011;55104;47.356;19.448;2024-03-02T05:55:05;12.25;;;5.40;;
68273;SDS011;55104;47.356;19.448;2024-03-02T05:58:08;17.33;;;7.05;;
68273;SDS011;55104;47.356;19.448;2024-03-02T06:01:19;16.50;;;7.35;;
68273;SDS011;55104;47.356;19.448;2024-03-02T06:04:21;17.17;;;7.63;;
68273;SDS011;55104;47.356;19.448;2024-03-02T06:07:24;15.38;;;7.03;;
68273;SDS011;55104;47.356;19.448;2024-03-02T06:10:27;16.70;;;7.20;;
68273;SDS011;55104;47.356;19.448;2024-03-02T06:13:29;19.65;;;6.65;;
68273;SDS011;55104;47.356;19.448;2024-03-02T06:16:32;15.27;;;6.78;;
68273;SDS011;55104;47.356;19.448;2024-03-02T06:19:35;19.58;;;6.32;;
68273;SDS011;55104;47.356;19.448;2024-03-02T06:22:37;19.43;;;7.13;;
68273;SDS011;55104;47.356;19.448;2024-03-02T06:25:39;13.23;;;6.25;;
68273;SDS011;55104;47.356;19.448;2024-03-02T06:28:42;15.02;;;6.70;;
68273;SDS011;55104;47.356;19.448;2024-03-02T06:31:44;12.85;;;6.50;;
68273;SDS011;55104;47.356;19.448;2024-03-02T06:34:47;16.05;;;6.28;;
68273;SDS011;55104;47.356;19.448;2024-03-02T06:37:49;12.57;;;5.93;;
68273;SDS011;55104;47.356;19.448;2024-03-02T06:40:51;19.90;;;7.22;;
68273;SDS011;55104;47.356;19.448;2024-03-02T06:43:54;22.00;;;8.53;;
68273;SDS011;55104;47.356;19.448;2024-03-02T06:47:01;16.63;;;6.68;;
68273;SDS011;55104;47.356;19.448;2024-03-02T06:50:04;14.90;;;6.85;;
68273;SDS011;55104;47.356;19.448;2024-03-02T06:53:07;22.20;;;7.57;;
68273;SDS011;55104;47.356;19.448;2024-03-02T06:56:09;16.93;;;8.17;;
68273;SDS011;55104;47.356;19.448;2024-03-02T06:59:11;15.35;;;6.78;;
68273;SDS011;55104;47.356;19.448;2024-03-02T07:02:14;20.05;;;6.82;;
68273;SDS011;55104;47.356;19.448;2024-03-02T07:05:16;19.75;;;7.28;;
68273;SDS011;55104;47.356;19.448;2024-03-02T07:08:18;15.33;;;6.53;;
68273;SDS011;55104;47.356;19.448;2024-03-02T07:11:20;13.95;;;6.95;;
68273;SDS011;55104;47.356;19.448;2024-03-02T07:14:23;15.75;;;6.80;;
68273;SDS011;55104;47.356;19.448;2024-03-02T07:17:45;18.30;;;7.22;;
68273;SDS011;55104;47.356;19.448;2024-03-02T07:20:47;14.05;;;7.95;;
68273;SDS011;55104;47.356;19.448;2024-03-02T07:23:51;15.10;;;6.60;;
68273;SDS011;55104;47.356;19.448;2024-03-02T07:26:53;15.45;;;6.75;;
68273;SDS011;55104;47.356;19.448;2024-03-02T07:29:56;22.47;;;7.57;;
68273;SDS011;55104;47.356;19.448;2024-03-02T07:32:58;14.35;;;7.15;;
68273;SDS011;55104;47.356;19.448;2024-03-02T07:36:01;11.80;;;5.55;;
68273;SDS011;55104;47.356;19.448;2024-03-02T07:39:06;11.13;;;5.72;;
68273;SDS011;55104;47.356;19.448;2024-03-02T07:42:09;16.40;;;6.90;;
68273;SDS011;55104;47.356;19.448;2024-03-02T07:45:11;16.65;;;7.60;;
68273;SDS011;55104;47.356;19.448;2024-03-02T07:48:14;15.80;;;7.65;;
68273;SDS011;55104;47.356;19.448;2024-03-02T07:51:16;15.13;;;7.60;;
68273;SDS011;55104;47.356;19.448;2024-03-02T07:54:19;15.43;;;6.97;;
68273;SDS011;55104;47.356;19.448;2024-03-02T07:57:21;16.92;;;6.57;;
68273;SDS011;55104;47.356;19.448;2024-03-02T08:00:23;15.90;;;6.13;;
68273;SDS011;55104;47.356;19.448;2024-03-02T08:03:27;13.68;;;5.72;;
68273;SDS011;55104;47.356;19.448;2024-03-02T08:06:30;15.77;;;6.60;;
68273;SDS011;55104;47.356;19.448;2024-03-02T08:09:32;13.13;;;6.55;;
68273;SDS011;55104;47.356;19.448;2024-03-02T08:12:34;13.70;;;6.43;;
68273;SDS011;55104;47.356;19.448;2024-03-02T08:15:36;18.05;;;7.45;;
68273;SDS011;55104;47.356;19.448;2024-03-02T08:18:39;12.88;;;5.53;;
68273;SDS011;55104;47.356;19.448;2024-03-02T08:21:42;17.83;;;7.03;;
68273;SDS011;55104;47.356;19.448;2024-03-02T08:24:45;14.57;;;6.17;;
68273;SDS011;55104;47.356;19.448;2024-03-02T08:27:48;16.05;;;6.97;;
68273;SDS011;55104;47.356;19.448;2024-03-02T08:30:50;14.57;;;5.40;;
68273;SDS011;55104;47.356;19.448;2024-03-02T08:33:52;13.05;;;5.55;;
68273;SDS011;55104;47.356;19.448;2024-03-02T08:36:55;16.30;;;5.85;;
68273;SDS011;55104;47.356;19.448;2024-03-02T08:39:57;15.05;;;6.32;;
68273;SDS011;55104;47.356;19.448;2024-03-02T08:42:59;11.45;;;5.22;;
68273;SDS011;55104;47.356;19.448;2024-03-02T08:46:02;10.90;;;4.83;;
68273;SDS011;55104;47.356;19.448;2024-03-02T08:49:04;13.90;;;5.45;;
68273;SDS011;55104;47.356;19.448;2024-03-02T08:52:07;13.43;;;6.80;;
68273;SDS011;55104;47.356;19.448;2024-03-02T08:55:09;14.40;;;5.78;;
68273;SDS011;55104;47.356;19.448;2024-03-02T08:58:13;10.23;;;4.77;;
68273;SDS011;55104;47.356;19.448;2024-03-02T09:01:15;12.32;;;4.32;;
68273;SDS011;55104;47.356;19.448;2024-03-02T09:04:18;12.05;;;4.95;;
68273;SDS011;55104;47.356;19.448;2024-03-02T09:07:22;13.02;;;5.03;;
68273;SDS011;55104;47.356;19.448;2024-03-02T09:10:25;12.37;;;4.90;;
68273;SDS011;55104;47.356;19.448;2024-03-02T09:13:29;12.13;;;5.18;;
68273;SDS011;55104;47.356;19.448;2024-03-02T09:16:32;9.15;;;4.38;;
68273;SDS011;55104;47.356;19.448;2024-03-02T09:19:34;10.32;;;4.25;;
68273;SDS011;55104;47.356;19.448;2024-03-02T09:22:36;12.30;;;4.03;;
68273;SDS011;55104;47.356;19.448;2024-03-02T09:25:39;10.55;;;4.78;;
68273;SDS011;55104;47.356;19.448;2024-03-02T09:28:44;7.95;;;3.53;;
68273;SDS011;55104;47.356;19.448;2024-03-02T09:31:47;13.35;;;6.53;;
68273;SDS011;55104;47.356;19.448;2024-03-02T09:34:49;12.40;;;5.97;;
68273;SDS011;55104;47.356;19.448;2024-03-02T09:37:51;10.50;;;4.32;;
68273;SDS011;55104;47.356;19.448;2024-03-02T09:40:53;12.70;;;5.10;;
68273;SDS011;55104;47.356;19.448;2024-03-02T09:43:55;13.57;;;5.72;;
68273;SDS011;55104;47.356;19.448;2024-03-02T09:46:59;14.63;;;6.00;;
68273;SDS011;55104;47.356;19.448;2024-03-02T09:50:01;11.13;;;4.45;;
68273;SDS011;55104;47.356;19.448;2024-03-02T09:53:04;10.10;;;4.05;;
68273;SDS011;55104;47.356;19.448;2024-03-02T09:56:07;9.35;;;3.70;;
68273;SDS011;55104;47.356;19.448;2024-03-02T09:59:10;11.43;;;4.67;;
68273;SDS011;55104;47.356;19.448;2024-03-02T10:02:13;9.75;;;4.60;;
68273;SDS011;55104;47.356;19.448;2024-03-02T10:05:25;12.93;;;5.70;;
68273;SDS011;55104;47.356;19.448;2024-03-02T10:08:42;13.68;;;5.95;;
68273;SDS011;55104;47.356;19.448;2024-03-02T10:11:46;10.47;;;5.77;;
68273;SDS011;55104;47.356;19.448;2024-03-02T10:14:48;14.15;;;7.57;;
68273;SDS011;55104;47.356;19.448;2024-03-02T10:17:53;9.10;;;4.82;;
68273;SDS011;55104;47.356;19.448;2024-03-02T10:20:55;8.43;;;3.97;;
68273;SDS011;55104;47.356;19.448;2024-03-02T10:24:20;12.30;;;5.00;;
68273;SDS011;55104;47.356;19.448;2024-03-02T10:27:25;9.48;;;4.68;;
68273;SDS011;55104;47.356;19.448;2024-03-02T10:30:29;19.42;;;5.40;;
68273;SDS011;55104;47.356;19.448;2024-03-02T10:33:31;9.77;;;5.20;;
68273;SDS011;55104;47.356;19.448;2024-03-02T10:36:34;12.47;;;4.23;;
68273;SDS011;55104;47.356;19.448;2024-03-02T10:39:39;15.20;;;6.40;;
68273;SDS011;55104;47.356;19.448;2024-03-02T10:42:43;9.77;;;4.07;;
68273;SDS011;55104;47.356;19.448;2024-03-02T10:45:47;9.60;;;4.57;;
68273;SDS011;55104;47.356;19.448;2024-03-02T10:48:52;12.70;;;6.03;;
68273;SDS011;55104;47.356;19.448;2024-03-02T10:51:55;12.23;;;5.40;;
68273;SDS011;55104;47.356;19.448;2024-03-02T10:54:57;10.50;;;4.82;;
68273;SDS011;55104;47.356;19.448;2024-03-02T10:57:59;10.88;;;4.88;;
68273;SDS011;55104;47.356;19.448;2024-03-02T11:01:07;11.70;;;6.10;;
68273;SDS011;55104;47.356;19.448;2024-03-02T11:04:10;15.85;;;6.60;;
68273;SDS011;55104;47.356;19.448;2024-03-02T11:07:14;11.15;;;5.13;;
68273;SDS011;55104;47.356;19.448;2024-03-02T11:10:18;22.05;;;8.75;;
68273;SDS011;55104;47.356;19.448;2024-03-02T11:13:33;19.00;;;7.13;;
68273;SDS011;55104;47.356;19.448;2024-03-02T11:16:40;9.10;;;4.13;;
68273;SDS011;55104;47.356;19.448;2024-03-02T11:19:51;13.07;;;4.75;;
68273;SDS011;55104;47.356;19.448;2024-03-02T11:23:33;16.08;;;6.45;;
68273;SDS011;55104;47.356;19.448;2024-03-02T11:26:38;11.17;;;4.30;;
68273;SDS011;55104;47.356;19.448;2024-03-02T11:32:43;9.48;;;4.18;;
68273;SDS011;55104;47.356;19.448;2024-03-02T11:35:57;17.60;;;5.25;;
68273;SDS011;55104;47.356;19.448;2024-03-02T11:38:59;13.80;;;5.47;;
68273;SDS011;55104;47.356;19.448;2024-03-02T11:42:01;12.45;;;5.00;;
68273;SDS011;55104;47.356;19.448;2024-03-02T11:45:05;12.55;;;4.90;;
68273;SDS011;55104;47.356;19.448;2024-03-02T11:48:11;17.00;;;7.45;;
68273;SDS011;55104;47.356;19.448;2024-03-02T11:51:17;26.30;;;7.57;;
68273;SDS011;55104;47.356;19.448;2024-03-02T11:54:20;12.10;;;5.72;;
68273;SDS011;55104;47.356;19.448;2024-03-02T11:57:23;11.38;;;4.20;;
68273;SDS011;55104;47.356;19.448;2024-03-02T12:00:25;10.52;;;5.45;;
68273;SDS011;55104;47.356;19.448;2024-03-02T12:03:27;8.40;;;4.07;;
68273;SDS011;55104;47.356;19.448;2024-03-02T12:06:31;10.65;;;3.92;;
68273;SDS011;55104;47.356;19.448;2024-03-02T12:09:34;9.60;;;4.00;;
68273;SDS011;55104;47.356;19.448;2024-03-02T12:12:37;15.05;;;4.88;;
68273;SDS011;55104;47.356;19.448;2024-03-02T12:15:39;10.63;;;3.47;;
68273;SDS011;55104;47.356;19.448;2024-03-02T12:18:44;13.10;;;6.28;;
68273;SDS011;55104;47.356;19.448;2024-03-02T12:21:47;12.10;;;4.38;;
68273;SDS011;55104;47.356;19.448;2024-03-02T12:24:50;10.70;;;5.25;;
68273;SDS011;55104;47.356;19.448;2024-03-02T12:27:55;13.77;;;4.65;;
68273;SDS011;55104;47.356;19.448;2024-03-02T12:31:16;9.73;;;5.00;;
68273;SDS011;55104;47.356;19.448;2024-03-02T12:34:21;8.60;;;3.05;;
68273;SDS011;55104;47.356;19.448;2024-03-02T12:37:25;8.77;;;4.03;;
68273;SDS011;55104;47.356;19.448;2024-03-02T12:40:30;10.10;;;4.07;;
68273;SDS011;55104;47.356;19.448;2024-03-02T12:43:34;7.97;;;3.53;;
68273;SDS011;55104;47.356;19.448;2024-03-02T12:46:36;11.77;;;4.50;;
68273;SDS011;55104;47.356;19.448;2024-03-02T12:49:40;8.67;;;3.60;;
68273;SDS011;55104;47.356;19.448;2024-03-02T12:52:42;12.20;;;5.03;;
68273;SDS011;55104;47.356;19.448;2024-03-02T12:55:45;10.55;;;4.53;;
68273;SDS011;55104;47.356;19.448;2024-03-02T12:58:47;12.15;;;4.03;;
68273;SDS011;55104;47.356;19.448;2024-03-02T13:01:52;8.82;;;3.97;;
68273;SDS011;55104;47.356;19.448;2024-03-02T13:04:55;7.45;;;3.58;;
68273;SDS011;55104;47.356;19.448;2024-03-02T13:07:59;9.70;;;4.53;;
68273;SDS011;55104;47.356;19.448;2024-03-02T13:11:05;11.23;;;4.20;;
68273;SDS011;55104;47.356;19.448;2024-03-02T13:14:12;14.15;;;4.80;;
68273;SDS011;55104;47.356;19.448;2024-03-02T13:17:15;14.48;;;4.65;;
68273;SDS011;55104;47.356;19.448;2024-03-02T13:20:17;10.73;;;5.25;;
68273;SDS011;55104;47.356;19.448;2024-03-02T13:23:21;22.20;;;6.17;;
68273;SDS011;55104;47.356;19.448;2024-03-02T13:26:23;13.23;;;6.15;;
68273;SDS011;55104;47.356;19.448;2024-03-02T13:29:26;17.85;;;8.05;;
68273;SDS011;55104;47.356;19.448;2024-03-02T13:32:28;19.75;;;8.77;;
68273;SDS011;55104;47.356;19.448;2024-03-02T13:35:30;19.77;;;6.93;;
68273;SDS011;55104;47.356;19.448;2024-03-02T13:38:33;13.43;;;6.55;;
68273;SDS011;55104;47.356;19.448;2024-03-02T13:41:35;14.32;;;6.68;;
68273;SDS011;55104;47.356;19.448;2024-03-02T13:44:38;15.05;;;6.38;;
68273;SDS011;55104;47.356;19.448;2024-03-02T13:47:41;16.45;;;6.15;;
68273;SDS011;55104;47.356;19.448;2024-03-02T13:50:44;15.32;;;4.97;;
68273;SDS011;55104;47.356;19.448;2024-03-02T13:53:47;9.25;;;4.63;;
68273;SDS011;55104;47.356;19.448;2024-03-02T13:56:49;12.27;;;3.83;;
68273;SDS011;55104;47.356;19.448;2024-03-02T13:59:52;14.38;;;6.18;;
68273;SDS011;55104;47.356;19.448;2024-03-02T14:02:55;13.27;;;4.28;;
68273;SDS011;55104;47.356;19.448;2024-03-02T14:05:58;10.80;;;4.93;;
68273;SDS011;55104;47.356;19.448;2024-03-02T14:09:00;13.77;;;6.13;;
68273;SDS011;55104;47.356;19.448;2024-03-02T14:12:02;13.95;;;7.50;;
68273;SDS011;55104;47.356;19.448;2024-03-02T14:15:05;13.80;;;6.95;;
68273;SDS011;55104;47.356;19.448;2024-03-02T14:18:08;19.92;;;7.65;;
68273;SDS011;55104;47.356;19.448;2024-03-02T14:21:14;15.03;;;7.23;;
68273;SDS011;55104;47.356;19.448;2024-03-02T14:24:17;17.90;;;6.07;;
68273;SDS011;55104;47.356;19.448;2024-03-02T14:27:19;13.00;;;5.78;;
68273;SDS011;55104;47.356;19.448;2024-03-02T14:30:39;9.73;;;4.22;;
68273;SDS011;55104;47.356;19.448;2024-03-02T14:33:41;10.27;;;5.27;;
68273;SDS011;55104;47.356;19.448;2024-03-02T14:36:44;10.18;;;4.93;;
68273;SDS011;55104;47.356;19.448;2024-03-02T14:39:46;9.55;;;4.28;;
68273;SDS011;55104;47.356;19.448;2024-03-02T14:42:49;10.52;;;4.63;;
68273;SDS011;55104;47.356;19.448;2024-03-02T14:45:52;12.17;;;4.37;;
68273;SDS011;55104;47.356;19.448;2024-03-02T14:48:54;13.35;;;6.05;;
68273;SDS011;55104;47.356;19.448;2024-03-02T14:51:57;11.65;;;6.10;;
68273;SDS011;55104;47.356;19.448;2024-03-02T14:54:59;12.52;;;6.13;;
68273;SDS011;55104;47.356;19.448;2024-03-02T14:58:02;14.10;;;6.30;;
68273;SDS011;55104;47.356;19.448;2024-03-02T15:01:04;12.55;;;7.07;;
68273;SDS011;55104;47.356;19.448;2024-03-02T15:04:11;22.20;;;7.72;;
68273;SDS011;55104;47.356;19.448;2024-03-02T15:07:13;15.05;;;8.32;;
68273;SDS011;55104;47.356;19.448;2024-03-02T15:10:16;15.27;;;7.20;;
68273;SDS011;55104;47.356;19.448;2024-03-02T15:13:19;15.43;;;7.32;;
68273;SDS011;55104;47.356;19.448;2024-03-02T15:16:23;16.75;;;6.10;;
68273;SDS011;55104;47.356;19.448;2024-03-02T15:19:25;13.23;;;4.45;;
68273;SDS011;55104;47.356;19.448;2024-03-02T15:22:27;11.20;;;4.83;;
68273;SDS011;55104;47.356;19.448;2024-03-02T15:25:34;10.23;;;3.95;;
68273;SDS011;55104;47.356;19.448;2024-03-02T15:28:43;10.10;;;3.75;;
68273;SDS011;55104;47.356;19.448;2024-03-02T15:31:45;9.73;;;4.05;;
68273;SDS011;55104;47.356;19.448;2024-03-02T15:34:47;12.13;;;4.90;;
68273;SDS011;55104;47.356;19.448;2024-03-02T15:37:50;11.32;;;4.13;;
68273;SDS011;55104;47.356;19.448;2024-03-02T15:40:52;9.27;;;4.00;;
68273;SDS011;55104;47.356;19.448;2024-03-02T15:43:54;11.05;;;4.55;;
68273;SDS011;55104;47.356;19.448;2024-03-02T15:46:59;11.37;;;4.80;;
68273;SDS011;55104;47.356;19.448;2024-03-02T15:50:04;7.43;;;2.85;;
68273;SDS011;55104;47.356;19.448;2024-03-02T15:53:07;11.52;;;4.55;;
68273;SDS011;55104;47.356;19.448;2024-03-02T15:56:10;7.72;;;3.22;;
68273;SDS011;55104;47.356;19.448;2024-03-02T15:59:13;11.03;;;3.73;;
68273;SDS011;55104;47.356;19.448;2024-03-02T16:02:15;13.50;;;3.50;;
68273;SDS011;55104;47.356;19.448;2024-03-02T16:05:18;8.60;;;3.50;;
68273;SDS011;55104;47.356;19.448;2024-03-02T16:08:22;12.25;;;4.85;;
68273;SDS011;55104;47.356;19.448;2024-03-02T16:11:24;7.73;;;2.93;;
68273;SDS011;55104;47.356;19.448;2024-03-02T16:14:26;9.48;;;3.63;;
68273;SDS011;55104;47.356;19.448;2024-03-02T16:17:28;8.50;;;4.03;;
68273;SDS011;55104;47.356;19.448;2024-03-02T16:20:31;9.90;;;4.82;;
68273;SDS011;55104;47.356;19.448;2024-03-02T16:23:33;7.70;;;3.63;;
68273;SDS011;55104;47.356;19.448;2024-03-02T16:26:35;10.40;;;3.97;;
68273;SDS011;55104;47.356;19.448;2024-03-02T16:29:38;11.57;;;4.32;;
68273;SDS011;55104;47.356;19.448;2024-03-02T16:32:40;11.25;;;5.38;;
68273;SDS011;55104;47.356;19.448;2024-03-02T16:35:43;12.53;;;5.33;;
68273;SDS011;55104;47.356;19.448;2024-03-02T16:38:49;10.57;;;4.13;;
68273;SDS011;55104;47.356;19.448;2024-03-02T16:41:52;8.77;;;4.00;;
68273;SDS011;55104;47.356;19.448;2024-03-02T16:44:54;8.52;;;3.80;;
68273;SDS011;55104;47.356;19.448;2024-03-02T16:47:58;9.07;;;3.93;;
68273;SDS011;55104;47.356;19.448;2024-03-02T16:51:00;12.27;;;3.92;;
68273;SDS011;55104;47.356;19.448;2024-03-02T16:54:03;10.30;;;4.28;;
68273;SDS011;55104;47.356;19.448;2024-03-02T16:57:06;7.65;;;3.78;;
68273;SDS011;55104;47.356;19.448;2024-03-02T17:00:08;8.93;;;2.57;;
68273;SDS011;55104;47.356;19.448;2024-03-02T17:03:12;9.02;;;2.75;;
68273;SDS011;55104;47.356;19.448;2024-03-02T17:06:14;8.00;;;2.97;;
68273;SDS011;55104;47.356;19.448;2024-03-02T17:09:17;7.40;;;2.38;;
68273;SDS011;55104;47.356;19.448;2024-03-02T17:12:19;5.87;;;2.53;;
68273;SDS011;55104;47.356;19.448;2024-03-02T17:15:21;7.93;;;2.97;;
68273;SDS011;55104;47.356;19.448;2024-03-02T17:18:24;7.28;;;2.65;;
68273;SDS011;55104;47.356;19.448;2024-03-02T17:21:26;12.30;;;5.18;;
68273;SDS011;55104;47.356;19.448;2024-03-02T17:24:29;10.03;;;4.80;;
68273;SDS011;55104;47.356;19.448;2024-03-02T17:27:35;9.25;;;3.83;;
68273;SDS011;55104;47.356;19.448;2024-03-02T17:30:38;8.73;;;3.28;;
68273;SDS011;55104;47.356;19.448;2024-03-02T17:33:42;8.48;;;3.60;;
68273;SDS011;55104;47.356;19.448;2024-03-02T17:36:45;8.07;;;3.23;;
68273;SDS011;55104;47.356;19.448;2024-03-02T17:39:47;16.73;;;4.07;;
68273;SDS011;55104;47.356;19.448;2024-03-02T17:42:49;7.47;;;3.08;;
68273;SDS011;55104;47.356;19.448;2024-03-02T17:45:52;9.52;;;3.63;;
68273;SDS011;55104;47.356;19.448;2024-03-02T17:48:55;10.60;;;4.53;;
68273;SDS011;55104;47.356;19.448;2024-03-02T17:51:58;7.45;;;3.67;;
68273;SDS011;55104;47.356;19.448;2024-03-02T17:55:00;8.07;;;3.95;;
68273;SDS011;55104;47.356;19.448;2024-03-02T17:58:03;8.02;;;2.78;;